sensor_id;sensor_type;location;lat;lon;timestamp;pressure;altitude;pressure_sealevel;temperature;humidity
67842;BME280;54642;59.126;37.876;2024-02-04T00:01:40;96724.00;;;-4.77;77.92
67842;BME280;54642;59.126;37.876;2024-02-04T00:04:06;96698.69;;;-4.95;78.17
67842;BME280;54642;59.126;37.876;2024-02-04T00:06:32;96707.16;;;-4.87;77.83
67842;BME280;54642;59.126;37.876;2024-02-04T00:08:58;96686.94;;;-4.96;77.94
67842;BME280;54642;59.126;37.876;2024-02-04T00:11:24;96709.69;;;-4.78;77.95
67842;BME280;54642;59.126;37.876;2024-02-04T00:13:51;96681.03;;;-4.91;78.03
67842;BME280;54642;59.126;37.876;2024-02-04T00:16:17;96705.47;;;-4.81;78.07
67842;BME280;54642;59.126;37.876;2024-02-04T00:18:43;96672.63;;;-4.87;78.01
67842;BME280;54642;59.126;37.876;2024-02-04T00:21:09;96656.63;;;-4.90;78.13
67842;BME280;54642;59.126;37.876;2024-02-04T00:23:35;96679.38;;;-4.78;77.67
67842;BME280;54642;59.126;37.876;2024-02-04T00:26:01;96695.41;;;-4.70;77.82
67842;BME280;54642;59.126;37.876;2024-02-04T00:28:26;96695.38;;;-4.73;78.34
67842;BME280;54642;59.126;37.876;2024-02-04T00:30:54;96662.53;;;-4.85;78.28
67842;BME280;54642;59.126;37.876;2024-02-04T00:33:22;96681.91;;;-4.69;78.24
67842;BME280;54642;59.126;37.876;2024-02-04T00:35:48;96658.34;;;-4.77;78.30
67842;BME280;54642;59.126;37.876;2024-02-04T00:38:13;96649.91;;;-4.81;78.22
67842;BME280;54642;59.126;37.876;2024-02-04T00:40:39;96684.47;;;-4.60;78.23
67842;BME280;54642;59.126;37.876;2024-02-04T00:43:05;96665.94;;;-4.65;78.53
67842;BME280;54642;59.126;37.876;2024-02-04T00:45:31;96654.97;;;-4.73;78.19
67842;BME280;54642;59.126;37.876;2024-02-04T00:47:57;96647.38;;;-4.65;78.20
67842;BME280;54642;59.126;37.876;2024-02-04T00:50:23;96650.75;;;-4.60;78.09
67842;BME280;54642;59.126;37.876;2024-02-04T00:52:48;96669.28;;;-4.56;78.26
67842;BME280;54642;59.126;37.876;2024-02-04T00:55:14;96622.13;;;-4.73;78.19
67842;BME280;54642;59.126;37.876;2024-02-04T00:57:40;96657.50;;;-4.56;78.25
67842;BME280;54642;59.126;37.876;2024-02-04T01:00:07;96639.81;;;-4.64;78.27
67842;BME280;54642;59.126;37.876;2024-02-04T01:02:33;96632.25;;;-4.67;78.27
67842;BME280;54642;59.126;37.876;2024-02-04T01:04:59;96657.50;;;-4.50;78.32
67842;BME280;54642;59.126;37.876;2024-02-04T01:07:25;96633.06;;;-4.62;78.51
67842;BME280;54642;59.126;37.876;2024-02-04T01:09:51;96660.88;;;-4.43;78.16
67842;BME280;54642;59.126;37.876;2024-02-04T01:12:17;96631.41;;;-4.61;78.19
67842;BME280;54642;59.126;37.876;2024-02-04T01:14:42;96633.91;;;-4.43;78.09
67842;BME280;54642;59.126;37.876;2024-02-04T01:17:08;96633.06;;;-4.45;78.12
67842;BME280;54642;59.126;37.876;2024-02-04T01:19:34;96589.28;;;-4.70;78.15
67842;BME280;54642;59.126;37.876;2024-02-04T01:22:00;96628.00;;;-4.43;78.10
67842;BME280;54642;59.126;37.876;2024-02-04T01:24:26;96616.22;;;-4.52;78.07
67842;BME280;54642;59.126;37.876;2024-02-04T01:26:52;96633.91;;;-4.43;78.06
67842;BME280;54642;59.126;37.876;2024-02-04T01:29:18;96619.56;;;-4.44;78.23
67842;BME280;54642;59.126;37.876;2024-02-04T01:31:43;96604.44;;;-4.50;78.06
67842;BME280;54642;59.126;37.876;2024-02-04T01:34:09;96613.69;;;-4.43;78.06
67842;BME280;54642;59.126;37.876;2024-02-04T01:36:35;96603.56;;;-4.47;77.99
67842;BME280;54642;59.126;37.876;2024-02-04T01:39:02;96579.16;;;-4.62;78.07
67842;BME280;54642;59.126;37.876;2024-02-04T01:41:28;96604.41;;;-4.41;78.01
67842;BME280;54642;59.126;37.876;2024-02-04T01:43:54;96615.38;;;-4.42;78.13
67842;BME280;54642;59.126;37.876;2024-02-04T01:46:20;96614.50;;;-4.42;77.99
67842;BME280;54642;59.126;37.876;2024-02-04T01:48:46;96608.63;;;-4.44;77.82
67842;BME280;54642;59.126;37.876;2024-02-04T01:51:14;96606.13;;;-4.50;78.06
67842;BME280;54642;59.126;37.876;2024-02-04T01:53:41;96579.16;;;-4.62;77.93
67842;BME280;54642;59.126;37.876;2024-02-04T01:56:11;96592.66;;;-4.52;78.01
67842;BME280;54642;59.126;37.876;2024-02-04T01:58:38;96594.28;;;-4.42;77.93
67842;BME280;54642;59.126;37.876;2024-02-04T02:01:04;96594.31;;;-4.36;77.91
67842;BME280;54642;59.126;37.876;2024-02-04T02:03:31;96589.25;;;-4.39;77.91
67842;BME280;54642;59.126;37.876;2024-02-04T02:05:59;96595.13;;;-4.38;78.03
67842;BME280;54642;59.126;37.876;2024-02-04T02:08:25;96595.16;;;-4.43;78.06
67842;BME280;54642;59.126;37.876;2024-02-04T02:10:51;96590.06;;;-4.37;77.89
67842;BME280;54642;59.126;37.876;2024-02-04T02:13:25;96579.16;;;-4.45;77.85
67842;BME280;54642;59.126;37.876;2024-02-04T02:15:58;96565.69;;;-4.49;78.15
67842;BME280;54642;59.126;37.876;2024-02-04T02:26:48;96571.56;;;-4.34;77.87
67842;BME280;54642;59.126;37.876;2024-02-04T02:29:14;96533.69;;;-4.56;77.93
67842;BME280;54642;59.126;37.876;2024-02-04T02:31:42;96570.69;;;-4.36;78.11
67842;BME280;54642;59.126;37.876;2024-02-04T02:34:08;96532.00;;;-4.52;77.89
67842;BME280;54642;59.126;37.876;2024-02-04T02:36:43;96547.09;;;-4.38;77.83
67842;BME280;54642;59.126;37.876;2024-02-04T02:39:15;96571.53;;;-4.30;77.85
67842;BME280;54642;59.126;37.876;2024-02-04T02:41:44;96559.78;;;-4.45;77.66
67842;BME280;54642;59.126;37.876;2024-02-04T02:44:11;96563.97;;;-4.42;77.61
67842;BME280;54642;59.126;37.876;2024-02-04T02:46:38;96542.09;;;-4.57;77.68
67842;BME280;54642;59.126;37.876;2024-02-04T02:49:04;96569.03;;;-4.36;77.57
67842;BME280;54642;59.126;37.876;2024-02-04T02:51:30;96571.56;;;-4.34;77.56
67842;BME280;54642;59.126;37.876;2024-02-04T02:53:56;96562.28;;;-4.34;77.59
67842;BME280;54642;59.126;37.876;2024-02-04T02:56:22;96549.63;;;-4.32;77.74
67842;BME280;54642;59.126;37.876;2024-02-04T02:58:48;96549.63;;;-4.40;77.51
67842;BME280;54642;59.126;37.876;2024-02-04T03:01:14;96566.50;;;-4.34;77.62
67842;BME280;54642;59.126;37.876;2024-02-04T03:03:39;96537.03;;;-4.48;77.70
67842;BME280;54642;59.126;37.876;2024-02-04T03:06:05;96543.78;;;-4.45;77.66
67842;BME280;54642;59.126;37.876;2024-02-04T03:08:32;96558.06;;;-4.27;77.50
67842;BME280;54642;59.126;37.876;2024-02-04T03:10:57;96541.22;;;-4.42;77.90
67842;BME280;54642;59.126;37.876;2024-02-04T03:13:23;96549.59;;;-4.23;77.59
67842;BME280;54642;59.126;37.876;2024-02-04T03:15:49;96559.72;;;-4.23;77.34
67842;BME280;54642;59.126;37.876;2024-02-04T03:18:15;96547.94;;;-4.33;77.60
67842;BME280;54642;59.126;37.876;2024-02-04T03:20:41;96548.78;;;-4.25;77.55
67842;BME280;54642;59.126;37.876;2024-02-04T03:23:07;96553.81;;;-4.33;77.46
67842;BME280;54642;59.126;37.876;2024-02-04T03:25:33;96558.03;;;-4.26;77.57
67842;BME280;54642;59.126;37.876;2024-02-04T03:27:58;96538.69;;;-4.36;77.83
67842;BME280;54642;59.126;37.876;2024-02-04T03:30:24;96562.25;;;-4.22;77.47
67842;BME280;54642;59.126;37.876;2024-02-04T03:32:51;96521.00;;;-4.41;77.43
67842;BME280;54642;59.126;37.876;2024-02-04T03:35:16;96558.03;;;-4.15;77.47
67842;BME280;54642;59.126;37.876;2024-02-04T03:37:43;96537.78;;;-4.23;77.45
67842;BME280;54642;59.126;37.876;2024-02-04T03:40:09;96549.59;;;-4.20;77.35
67842;BME280;54642;59.126;37.876;2024-02-04T03:42:35;96517.59;;;-4.33;77.33
67842;BME280;54642;59.126;37.876;2024-02-04T03:45:02;96547.06;;;-4.20;77.34
67842;BME280;54642;59.126;37.876;2024-02-04T03:47:29;96542.03;;;-4.29;77.35
67842;BME280;54642;59.126;37.876;2024-02-04T03:49:55;96526.88;;;-4.34;77.18
67842;BME280;54642;59.126;37.876;2024-02-04T03:52:21;96543.72;;;-4.24;77.33
67842;BME280;54642;59.126;37.876;2024-02-04T03:54:47;96504.19;;;-4.48;77.22
67842;BME280;54642;59.126;37.876;2024-02-04T03:57:13;96517.66;;;-4.44;77.31
67842;BME280;54642;59.126;37.876;2024-02-04T03:59:39;96550.47;;;-4.27;77.31
67842;BME280;54642;59.126;37.876;2024-02-04T04:02:05;96550.47;;;-4.29;77.26
67842;BME280;54642;59.126;37.876;2024-02-04T04:04:31;96547.06;;;-4.28;77.10
67842;BME280;54642;59.126;37.876;2024-02-04T04:06:57;96529.41;;;-4.35;77.30
67842;BME280;54642;59.126;37.876;2024-02-04T04:09:23;96552.97;;;-4.19;77.22
67842;BME280;54642;59.126;37.876;2024-02-04T04:11:49;96528.59;;;-4.39;77.16
67842;BME280;54642;59.126;37.876;2024-02-04T04:14:15;96558.03;;;-4.26;77.11
67842;BME280;54642;59.126;37.876;2024-02-04T04:16:40;96546.28;;;-4.34;77.22
67842;BME280;54642;59.126;37.876;2024-02-04T04:19:06;96542.06;;;-4.34;77.46
67842;BME280;54642;59.126;37.876;2024-02-04T04:21:32;96545.41;;;-4.32;77.42
67842;BME280;54642;59.126;37.876;2024-02-04T04:23:58;96563.91;;;-4.17;77.31
67842;BME280;54642;59.126;37.876;2024-02-04T04:26:24;96556.31;;;-4.16;77.39
67842;BME280;54642;59.126;37.876;2024-02-04T04:28:50;96539.50;;;-4.26;77.17
67842;BME280;54642;59.126;37.876;2024-02-04T04:31:15;96531.94;;;-4.37;77.20
67842;BME280;54642;59.126;37.876;2024-02-04T04:33:41;96520.16;;;-4.38;77.22
67842;BME280;54642;59.126;37.876;2024-02-04T04:36:07;96545.38;;;-4.23;77.34
67842;BME280;54642;59.126;37.876;2024-02-04T04:38:33;96510.88;;;-4.37;77.54
67842;BME280;54642;59.126;37.876;2024-02-04T04:40:59;96526.84;;;-4.28;77.54
67842;BME280;54642;59.126;37.876;2024-02-04T04:43:25;96519.31;;;-4.32;77.60
67842;BME280;54642;59.126;37.876;2024-02-04T04:45:52;96520.13;;;-4.35;77.79
67842;BME280;54642;59.126;37.876;2024-02-04T04:48:18;96522.69;;;-4.39;77.53
67842;BME280;54642;59.126;37.876;2024-02-04T04:50:44;96551.31;;;-4.30;77.80
67842;BME280;54642;59.126;37.876;2024-02-04T04:53:10;96523.53;;;-4.41;77.75
67842;BME280;54642;59.126;37.876;2024-02-04T04:55:35;96541.19;;;-4.25;77.82
67842;BME280;54642;59.126;37.876;2024-02-04T04:58:01;96542.06;;;-4.31;77.71
67842;BME280;54642;59.126;37.876;2024-02-04T05:00:27;96534.47;;;-4.32;77.81
67842;BME280;54642;59.126;37.876;2024-02-04T05:02:53;96553.81;;;-4.25;77.97
67842;BME280;54642;59.126;37.876;2024-02-04T05:05:19;96544.59;;;-4.31;78.09
67842;BME280;54642;59.126;37.876;2024-02-04T05:07:44;96543.75;;;-4.36;77.92
67842;BME280;54642;59.126;37.876;2024-02-04T05:10:12;96560.56;;;-4.26;77.99
67842;BME280;54642;59.126;37.876;2024-02-04T05:12:38;96553.00;;;-4.33;78.09
67842;BME280;54642;59.126;37.876;2024-02-04T05:15:07;96563.06;;;-4.24;78.20
67842;BME280;54642;59.126;37.876;2024-02-04T05:17:33;96558.06;;;-4.30;78.01
67842;BME280;54642;59.126;37.876;2024-02-04T05:19:59;96540.41;;;-4.55;77.89
67842;BME280;54642;59.126;37.876;2024-02-04T05:22:25;96565.66;;;-4.39;78.11
67842;BME280;54642;59.126;37.876;2024-02-04T05:24:51;96575.75;;;-4.35;78.26
67842;BME280;54642;59.126;37.876;2024-02-04T05:27:16;96583.34;;;-4.32;78.32
67842;BME280;54642;59.126;37.876;2024-02-04T05:29:42;96571.56;;;-4.36;78.40
67842;BME280;54642;59.126;37.876;2024-02-04T05:32:08;96562.28;;;-4.35;78.29
67842;BME280;54642;59.126;37.876;2024-02-04T05:34:34;96552.16;;;-4.35;78.21
67842;BME280;54642;59.126;37.876;2024-02-04T05:37:01;96543.72;;;-4.33;78.05
67842;BME280;54642;59.126;37.876;2024-02-04T05:39:27;96546.25;;;-4.33;77.98
67842;BME280;54642;59.126;37.876;2024-02-04T05:41:53;96563.09;;;-4.27;78.08
67842;BME280;54642;59.126;37.876;2024-02-04T05:44:19;96565.59;;;-4.19;78.06
67842;BME280;54642;59.126;37.876;2024-02-04T05:46:44;96556.28;;;-4.04;78.32
67842;BME280;54642;59.126;37.876;2024-02-04T05:49:11;96558.72;;;-3.80;78.27
67842;BME280;54642;59.126;37.876;2024-02-04T05:51:41;96566.25;;;-3.70;78.05
67842;BME280;54642;59.126;37.876;2024-02-04T05:54:07;96570.41;;;-3.58;77.72
67842;BME280;54642;59.126;37.876;2024-02-04T05:56:34;96541.78;;;-3.72;77.71
67842;BME280;54642;59.126;37.876;2024-02-04T05:59:00;96580.56;;;-3.70;77.65
67842;BME280;54642;59.126;37.876;2024-02-04T06:01:25;96540.25;;;-4.03;77.58
67842;BME280;54642;59.126;37.876;2024-02-04T06:03:51;96541.16;;;-4.11;78.06
67842;BME280;54642;59.126;37.876;2024-02-04T06:06:18;96566.41;;;-4.05;78.06
67842;BME280;54642;59.126;37.876;2024-02-04T06:08:46;96569.78;;;-4.08;78.17
67842;BME280;54642;59.126;37.876;2024-02-04T06:11:13;96528.56;;;-4.30;78.17
67842;BME280;54642;59.126;37.876;2024-02-04T06:13:43;96524.38;;;-4.37;78.19
67842;BME280;54642;59.126;37.876;2024-02-04T06:16:09;96580.75;;;-4.10;78.35
67842;BME280;54642;59.126;37.876;2024-02-04T06:18:38;96569.78;;;-4.09;78.39
67842;BME280;54642;59.126;37.876;2024-02-04T06:21:05;96568.09;;;-4.09;78.19
67842;BME280;54642;59.126;37.876;2024-02-04T06:23:31;96531.94;;;-4.34;78.28
67842;BME280;54642;59.126;37.876;2024-02-04T06:25:57;96572.28;;;-4.06;78.41
67842;BME280;54642;59.126;37.876;2024-02-04T06:28:23;96548.78;;;-4.24;78.15
67842;BME280;54642;59.126;37.876;2024-02-04T06:30:49;96577.34;;;-4.06;78.32
67842;BME280;54642;59.126;37.876;2024-02-04T06:33:15;96563.06;;;-4.19;78.17
67842;BME280;54642;59.126;37.876;2024-02-04T06:35:42;96582.41;;;-4.06;78.11
67842;BME280;54642;59.126;37.876;2024-02-04T06:38:08;96576.47;;;-3.99;78.19
67842;BME280;54642;59.126;37.876;2024-02-04T06:40:34;96580.72;;;-3.98;78.04
67842;BME280;54642;59.126;37.876;2024-02-04T06:43:00;96591.66;;;-3.99;77.92
67842;BME280;54642;59.126;37.876;2024-02-04T06:45:25;96560.56;;;-4.15;77.93
67842;BME280;54642;59.126;37.876;2024-02-04T06:47:51;96556.31;;;-4.13;78.07
67842;BME280;54642;59.126;37.876;2024-02-04T06:50:17;96552.97;;;-4.19;77.84
67842;BME280;54642;59.126;37.876;2024-02-04T06:52:43;96589.16;;;-4.08;77.82
67842;BME280;54642;59.126;37.876;2024-02-04T06:55:10;96586.63;;;-4.04;77.87
67842;BME280;54642;59.126;37.876;2024-02-04T06:57:36;96572.28;;;-4.00;77.88
67842;BME280;54642;59.126;37.876;2024-02-04T07:00:02;96591.63;;;-3.88;77.84
67842;BME280;54642;59.126;37.876;2024-02-04T07:02:31;96556.28;;;-4.05;77.77
67842;BME280;54642;59.126;37.876;2024-02-04T07:04:57;96584.91;;;-3.95;77.58
67842;BME280;54642;59.126;37.876;2024-02-04T07:07:23;96580.66;;;-3.83;78.22
67842;BME280;54642;59.126;37.876;2024-02-04T07:09:49;96591.56;;;-3.77;77.62
67842;BME280;54642;59.126;37.876;2024-02-04T07:12:14;96581.44;;;-3.76;77.54
67842;BME280;54642;59.126;37.876;2024-02-04T07:14:40;96573.91;;;-3.80;77.75
67842;BME280;54642;59.126;37.876;2024-02-04T07:17:06;96582.25;;;-3.63;77.41
67842;BME280;54642;59.126;37.876;2024-02-04T07:19:32;96561.22;;;-3.77;77.30
67842;BME280;54642;59.126;37.876;2024-02-04T07:21:58;96593.22;;;-3.61;77.39
67842;BME280;54642;59.126;37.876;2024-02-04T07:24:24;96603.34;;;-3.62;77.13
67842;BME280;54642;59.126;37.876;2024-02-04T07:26:50;96607.56;;;-3.66;77.33
67842;BME280;54642;59.126;37.876;2024-02-04T07:29:15;96590.72;;;-3.73;77.04
67842;BME280;54642;59.126;37.876;2024-02-04T07:31:42;96593.22;;;-3.62;77.00
67842;BME280;54642;59.126;37.876;2024-02-04T07:34:08;96570.50;;;-3.78;76.99
67842;BME280;54642;59.126;37.876;2024-02-04T07:36:33;96612.59;;;-3.57;77.07
67842;BME280;54642;59.126;37.876;2024-02-04T07:38:59;96603.34;;;-3.69;77.08
67842;BME280;54642;59.126;37.876;2024-02-04T07:41:26;96591.56;;;-3.71;77.25
67842;BME280;54642;59.126;37.876;2024-02-04T07:43:52;96621.00;;;-3.52;76.94
67842;BME280;54642;59.126;37.876;2024-02-04T07:46:18;96616.81;;;-3.57;77.06
67842;BME280;54642;59.126;37.876;2024-02-04T07:48:43;96612.59;;;-3.60;76.70
67842;BME280;54642;59.126;37.876;2024-02-04T07:51:09;96605.00;;;-3.58;76.87
67842;BME280;54642;59.126;37.876;2024-02-04T07:53:35;96604.13;;;-3.53;77.01
67842;BME280;54642;59.126;37.876;2024-02-04T07:56:04;96596.50;;;-3.48;76.89
67842;BME280;54642;59.126;37.876;2024-02-04T07:58:32;96618.31;;;-3.26;76.47
67842;BME280;54642;59.126;37.876;2024-02-04T08:00:58;96630.06;;;-3.14;76.08
67842;BME280;54642;59.126;37.876;2024-02-04T08:03:24;96594.69;;;-3.26;75.86
67842;BME280;54642;59.126;37.876;2024-02-04T08:05:50;96600.56;;;-3.19;75.74
67842;BME280;54642;59.126;37.876;2024-02-04T08:08:16;96630.00;;;-2.98;75.63
67842;BME280;54642;59.126;37.876;2024-02-04T08:10:42;96608.91;;;-3.00;75.87
67842;BME280;54642;59.126;37.876;2024-02-04T08:13:08;96635.00;;;-2.88;75.43
67842;BME280;54642;59.126;37.876;2024-02-04T08:15:34;96629.03;;;-2.85;75.40
67842;BME280;54642;59.126;37.876;2024-02-04T08:18:00;96634.09;;;-2.79;75.25
67842;BME280;54642;59.126;37.876;2024-02-04T08:20:26;96607.13;;;-2.92;75.09
67842;BME280;54642;59.126;37.876;2024-02-04T08:22:52;96633.22;;;-2.76;75.27
67842;BME280;54642;59.126;37.876;2024-02-04T08:25:18;96618.97;;;-2.91;74.88
67842;BME280;54642;59.126;37.876;2024-02-04T08:27:43;96627.38;;;-2.89;74.90
67842;BME280;54642;59.126;37.876;2024-02-04T08:30:09;96654.31;;;-2.74;74.72
67842;BME280;54642;59.126;37.876;2024-02-04T08:32:37;96646.75;;;-2.82;74.72
67842;BME280;54642;59.126;37.876;2024-02-04T08:35:04;96637.47;;;-2.84;74.66
67842;BME280;54642;59.126;37.876;2024-02-04T08:37:32;96651.09;;;-3.01;74.85
67842;BME280;54642;59.126;37.876;2024-02-04T08:39:57;96639.41;;;-3.22;75.34
67842;BME280;54642;59.126;37.876;2024-02-04T08:42:24;96641.09;;;-3.24;75.61
67842;BME280;54642;59.126;37.876;2024-02-04T08:44:49;96640.31;;;-3.37;75.87
67842;BME280;54642;59.126;37.876;2024-02-04T08:47:15;96651.22;;;-3.26;76.00
67842;BME280;54642;59.126;37.876;2024-02-04T08:49:42;96652.09;;;-3.28;76.11
67842;BME280;54642;59.126;37.876;2024-02-04T08:52:08;96637.75;;;-3.29;76.07
67842;BME280;54642;59.126;37.876;2024-02-04T08:54:34;96657.13;;;-3.22;76.31
67842;BME280;54642;59.126;37.876;2024-02-04T08:57:00;96656.34;;;-3.30;76.22
67842;BME280;54642;59.126;37.876;2024-02-04T08:59:26;96652.16;;;-3.34;76.05
67842;BME280;54642;59.126;37.876;2024-02-04T09:01:52;96638.63;;;-3.33;76.10
67842;BME280;54642;59.126;37.876;2024-02-04T09:04:17;96663.00;;;-3.14;75.95
67842;BME280;54642;59.126;37.876;2024-02-04T09:06:43;96648.63;;;-3.07;75.86
67842;BME280;54642;59.126;37.876;2024-02-04T09:09:09;96668.75;;;-2.84;75.52
67842;BME280;54642;59.126;37.876;2024-02-04T09:11:35;96659.44;;;-2.79;75.02
67842;BME280;54642;59.126;37.876;2024-02-04T09:14:01;96613.25;;;-3.21;74.99
67842;BME280;54642;59.126;37.876;2024-02-04T09:16:27;96662.13;;;-3.05;75.39
67842;BME280;54642;59.126;37.876;2024-02-04T09:18:53;96585.59;;;-3.58;75.53
67842;BME280;54642;59.126;37.876;2024-02-04T09:21:19;96641.09;;;-3.19;75.75
67842;BME280;54642;59.126;37.876;2024-02-04T09:23:46;96653.69;;;-3.10;75.67
67842;BME280;54642;59.126;37.876;2024-02-04T09:26:12;96637.69;;;-3.14;75.70
67842;BME280;54642;59.126;37.876;2024-02-04T09:28:38;96656.13;;;-2.93;75.54
67842;BME280;54642;59.126;37.876;2024-02-04T09:31:04;96642.59;;;-2.92;75.31
67842;BME280;54642;59.126;37.876;2024-02-04T09:33:30;96661.09;;;-2.79;74.95
67842;BME280;54642;59.126;37.876;2024-02-04T09:35:56;96651.81;;;-2.79;75.04
67842;BME280;54642;59.126;37.876;2024-02-04T09:38:21;96644.25;;;-2.85;75.02
67842;BME280;54642;59.126;37.876;2024-02-04T09:40:47;96667.78;;;-2.71;75.09
67842;BME280;54642;59.126;37.876;2024-02-04T09:43:14;96677.06;;;-2.66;74.53
67842;BME280;54642;59.126;37.876;2024-02-04T09:45:40;96679.56;;;-2.63;74.40
67842;BME280;54642;59.126;37.876;2024-02-04T09:48:07;96676.19;;;-2.62;74.16
67842;BME280;54642;59.126;37.876;2024-02-04T09:50:34;96674.50;;;-2.63;74.20
67842;BME280;54642;59.126;37.876;2024-02-04T09:53:00;96653.47;;;-2.73;74.46
67842;BME280;54642;59.126;37.876;2024-02-04T09:55:29;96669.44;;;-2.63;73.91
67842;BME280;54642;59.126;37.876;2024-02-04T09:57:56;96650.13;;;-2.83;73.54
67842;BME280;54642;59.126;37.876;2024-02-04T10:00:23;96661.97;;;-2.82;73.66
67842;BME280;54642;59.126;37.876;2024-02-04T10:02:53;96685.59;;;-2.78;73.81
67842;BME280;54642;59.126;37.876;2024-02-04T10:05:21;96657.81;;;-2.95;73.54
67842;BME280;54642;59.126;37.876;2024-02-04T10:07:47;96657.00;;;-2.97;73.76
67842;BME280;54642;59.126;37.876;2024-02-04T10:10:13;96680.59;;;-2.86;73.78
67842;BME280;54642;59.126;37.876;2024-02-04T10:12:39;96684.84;;;-2.91;73.92
67842;BME280;54642;59.126;37.876;2024-02-04T10:15:07;96686.53;;;-2.93;73.73
67842;BME280;54642;59.126;37.876;2024-02-04T10:17:33;96673.06;;;-3.01;73.93
67842;BME280;54642;59.126;37.876;2024-02-04T10:20:00;96691.56;;;-2.92;73.77
67842;BME280;54642;59.126;37.876;2024-02-04T10:22:27;96663.81;;;-3.07;73.62
67842;BME280;54642;59.126;37.876;2024-02-04T10:24:53;96678.97;;;-2.99;73.83
67842;BME280;54642;59.126;37.876;2024-02-04T10:27:19;96652.03;;;-3.13;73.69
67842;BME280;54642;59.126;37.876;2024-02-04T10:29:45;96689.91;;;-2.94;73.72
67842;BME280;54642;59.126;37.876;2024-02-04T10:32:11;96683.97;;;-2.90;73.61
67842;BME280;54642;59.126;37.876;2024-02-04T10:34:38;96688.22;;;-2.95;73.49
67842;BME280;54642;59.126;37.876;2024-02-04T10:37:05;96683.16;;;-2.94;73.32
67842;BME280;54642;59.126;37.876;2024-02-04T10:39:31;96701.69;;;-2.87;73.67
67842;BME280;54642;59.126;37.876;2024-02-04T10:42:01;96691.63;;;-2.95;73.83
67842;BME280;54642;59.126;37.876;2024-02-04T10:44:28;96701.69;;;-2.84;73.71
67842;BME280;54642;59.126;37.876;2024-02-04T10:47:00;96708.41;;;-2.80;73.63
67842;BME280;54642;59.126;37.876;2024-02-04T10:49:33;96681.50;;;-2.99;73.44
67842;BME280;54642;59.126;37.876;2024-02-04T10:52:00;96675.59;;;-2.97;73.58
67842;BME280;54642;59.126;37.876;2024-02-04T10:54:30;96686.50;;;-2.90;73.56
67842;BME280;54642;59.126;37.876;2024-02-04T10:57:00;96700.81;;;-2.78;73.71
67842;BME280;54642;59.126;37.876;2024-02-04T10:59:29;96681.41;;;-2.84;73.49
67842;BME280;54642;59.126;37.876;2024-02-04T11:01:56;96701.56;;;-2.65;73.30
67842;BME280;54642;59.126;37.876;2024-02-04T11:04:22;96699.81;;;-2.57;73.31
67842;BME280;54642;59.126;37.876;2024-02-04T11:06:49;96695.56;;;-2.52;73.26
67842;BME280;54642;59.126;37.876;2024-02-04T11:09:16;96628.28;;;-2.93;73.37
67842;BME280;54642;59.126;37.876;2024-02-04T11:11:43;96700.66;;;-2.55;73.31
67842;BME280;54642;59.126;37.876;2024-02-04T11:14:12;96679.66;;;-2.76;73.30
67842;BME280;54642;59.126;37.876;2024-02-04T11:19:37;96720.94;;;-2.60;73.26
67842;BME280;54642;59.126;37.876;2024-02-04T11:27:39;96726.84;;;-2.53;73.45
67842;BME280;54642;59.126;37.876;2024-02-04T11:30:06;96725.19;;;-2.57;73.43
67842;BME280;54642;59.126;37.876;2024-02-04T11:32:35;96721.81;;;-2.59;73.63
67842;BME280;54642;59.126;37.876;2024-02-04T11:35:01;96725.13;;;-2.54;73.93
67842;BME280;54642;59.126;37.876;2024-02-04T11:37:29;96724.34;;;-2.62;73.33
67842;BME280;54642;59.126;37.876;2024-02-04T11:39:57;96736.16;;;-2.61;73.49
67842;BME280;54642;59.126;37.876;2024-02-04T11:42:23;96711.72;;;-2.70;73.61
67842;BME280;54642;59.126;37.876;2024-02-04T11:44:50;96704.22;;;-2.82;73.50
67842;BME280;54642;59.126;37.876;2024-02-04T11:47:26;96727.75;;;-2.66;73.61
67842;BME280;54642;59.126;37.876;2024-02-04T11:49:56;96736.22;;;-2.64;73.51
67842;BME280;54642;59.126;37.876;2024-02-04T11:52:23;96713.41;;;-2.71;73.56
67842;BME280;54642;59.126;37.876;2024-02-04T11:54:49;96733.59;;;-2.52;73.37
67842;BME280;54642;59.126;37.876;2024-02-04T11:57:15;96739.50;;;-2.52;73.48
67842;BME280;54642;59.126;37.876;2024-02-04T11:59:42;96744.56;;;-2.50;73.47
67842;BME280;54642;59.126;37.876;2024-02-04T12:02:09;96748.81;;;-2.52;73.08
67842;BME280;54642;59.126;37.876;2024-02-04T12:04:35;96746.22;;;-2.49;73.09
67842;BME280;54642;59.126;37.876;2024-02-04T12:07:03;96746.28;;;-2.54;72.71
67842;BME280;54642;59.126;37.876;2024-02-04T12:09:29;96762.31;;;-2.50;72.56
67842;BME280;54642;59.126;37.876;2024-02-04T12:11:56;96731.97;;;-2.69;72.60
67842;BME280;54642;59.126;37.876;2024-02-04T12:14:22;96715.94;;;-2.71;72.33
67842;BME280;54642;59.126;37.876;2024-02-04T12:16:48;96759.78;;;-2.48;72.30
67842;BME280;54642;59.126;37.876;2024-02-04T12:19:14;96747.94;;;-2.54;72.41
67842;BME280;54642;59.126;37.876;2024-02-04T12:21:39;96726.09;;;-2.69;72.36
67842;BME280;54642;59.126;37.876;2024-02-04T12:24:06;96736.19;;;-2.63;72.46
67842;BME280;54642;59.126;37.876;2024-02-04T12:26:32;96738.69;;;-2.60;72.52
67842;BME280;54642;59.126;37.876;2024-02-04T12:28:58;96753.00;;;-2.51;72.25
67842;BME280;54642;59.126;37.876;2024-02-04T12:31:26;96725.22;;;-2.66;72.63
67842;BME280;54642;59.126;37.876;2024-02-04T12:33:58;96762.25;;;-2.45;72.59
67842;BME280;54642;59.126;37.876;2024-02-04T12:36:29;96757.22;;;-2.48;72.74
67842;BME280;54642;59.126;37.876;2024-02-04T12:38:56;96777.47;;;-2.45;72.62
67842;BME280;54642;59.126;37.876;2024-02-04T12:41:23;96752.22;;;-2.59;72.38
67842;BME280;54642;59.126;37.876;2024-02-04T12:43:56;96769.09;;;-2.52;72.13
67842;BME280;54642;59.126;37.876;2024-02-04T12:46:24;96784.31;;;-2.57;72.40
67842;BME280;54642;59.126;37.876;2024-02-04T12:48:57;96775.00;;;-2.58;72.40
67842;BME280;54642;59.126;37.876;2024-02-04T12:51:32;96761.50;;;-2.60;72.38
67842;BME280;54642;59.126;37.876;2024-02-04T12:54:08;96783.44;;;-2.50;72.38
67842;BME280;54642;59.126;37.876;2024-02-04T12:56:52;96774.22;;;-2.64;72.37
67842;BME280;54642;59.126;37.876;2024-02-04T12:59:28;96805.44;;;-2.55;72.29
67842;BME280;54642;59.126;37.876;2024-02-04T13:01:57;96769.22;;;-2.77;72.24
67842;BME280;54642;59.126;37.876;2024-02-04T13:04:24;96777.66;;;-2.75;72.29